createdAt,value
2023-03-28T00:01:33.354Z,18.42
2023-03-28T00:04:03.452Z,18.40
2023-03-28T00:06:32.207Z,18.40
2023-03-28T00:09:00.421Z,18.39
2023-03-28T00:11:31.335Z,18.36
2023-03-28T00:14:03.786Z,18.32
2023-03-28T00:16:39.577Z,18.26
2023-03-28T00:19:13.325Z,18.21
2023-03-28T00:21:47.193Z,18.19
2023-03-28T00:24:16.957Z,18.16
2023-03-28T00:26:45.610Z,18.12
2023-03-28T00:29:21.418Z,18.11
2023-03-28T00:31:50.440Z,18.14
2023-03-28T00:34:19.995Z,18.15
2023-03-28T00:36:48.433Z,18.16
2023-03-28T00:39:16.910Z,18.15
2023-03-28T00:41:45.760Z,18.15
2023-03-28T00:44:43.696Z,18.08
2023-03-28T00:47:41.011Z,18.07
2023-03-28T00:50:23.738Z,18.04
2023-03-28T00:53:18.250Z,18.02
2023-03-28T00:55:57.717Z,18.02
2023-03-28T00:58:29.623Z,18.03
2023-03-28T01:00:58.339Z,18.05
2023-03-28T01:03:33.765Z,18.06
2023-03-28T01:06:04.779Z,18.09
2023-03-28T01:08:44.228Z,18.08
2023-03-28T01:11:12.781Z,18.06
2023-03-28T01:13:46.920Z,18.03
2023-03-28T01:16:16.129Z,18.06
2023-03-28T01:18:47.220Z,18.07
2023-03-28T01:22:06.769Z,18.06
2023-03-28T01:25:02.219Z,18.10
2023-03-28T01:27:45.836Z,18.07
2023-03-28T01:30:53.654Z,18.07
2023-03-28T01:34:31.745Z,18.09
2023-03-28T01:37:10.418Z,18.10
2023-03-28T01:40:01.132Z,18.08
2023-03-28T01:42:49.521Z,18.05
2023-03-28T01:45:30.310Z,18.02
2023-03-28T01:48:06.534Z,18.03
2023-03-28T01:50:58.218Z,17.99
2023-03-28T01:53:32.835Z,17.97
2023-03-28T01:56:04.274Z,17.92
2023-03-28T01:58:42.479Z,17.89
2023-03-28T02:01:37.091Z,17.88
2023-03-28T02:04:20.384Z,17.90
2023-03-28T02:07:00.468Z,17.89
2023-03-28T02:09:36.141Z,17.87
2023-03-28T02:12:12.487Z,17.86
2023-03-28T02:15:12.049Z,17.87
2023-03-28T02:17:42.516Z,17.86
2023-03-28T02:20:30.043Z,17.86
2023-03-28T02:23:24.043Z,17.87
2023-03-28T02:26:12.557Z,17.85
2023-03-28T02:29:02.072Z,17.85
2023-03-28T02:31:36.285Z,17.86
2023-03-28T02:34:04.778Z,17.84
2023-03-28T02:36:41.812Z,17.81
2023-03-28T02:39:13.189Z,17.77
2023-03-28T02:42:17.998Z,17.70
2023-03-28T02:45:14.180Z,17.51
2023-03-28T02:47:49.324Z,17.22
2023-03-28T02:50:30.988Z,17.17
2023-03-28T02:53:05.828Z,17.14
2023-03-28T02:55:39.706Z,17.10
2023-03-28T02:58:30.797Z,17.11
2023-03-28T03:00:59.128Z,17.13
2023-03-28T03:03:28.616Z,17.11
2023-03-28T03:05:58.405Z,17.10
2023-03-28T03:08:28.092Z,17.13
2023-03-28T03:10:57.315Z,17.15
2023-03-28T03:13:26.178Z,17.16
2023-03-28T03:15:56.338Z,17.17
2023-03-28T03:18:26.448Z,17.17
2023-03-28T03:20:55.727Z,17.13
2023-03-28T03:23:27.844Z,17.15
2023-03-28T03:25:58.400Z,17.16
2023-03-28T03:28:34.663Z,17.15
2023-03-28T03:31:06.612Z,17.15
2023-03-28T03:33:38.287Z,17.15
2023-03-28T03:36:12.952Z,17.17
2023-03-28T03:38:45.082Z,17.18
2023-03-28T03:41:17.457Z,17.16
2023-03-28T03:43:47.498Z,17.15
2023-03-28T03:46:15.934Z,17.14
2023-03-28T03:48:49.673Z,17.13
2023-03-28T03:51:19.786Z,17.12
2023-03-28T03:53:50.908Z,17.11
2023-03-28T03:56:21.594Z,17.10
2023-03-28T03:58:58.149Z,17.12
2023-03-28T04:01:35.248Z,17.15
2023-03-28T04:04:24.137Z,17.16
2023-03-28T04:07:16.093Z,17.12
2023-03-28T04:09:49.451Z,17.01
2023-03-28T04:12:18.851Z,17.02
2023-03-28T04:14:48.603Z,17.01
2023-03-28T04:17:41.507Z,17.06
2023-03-28T04:20:15.915Z,17.07
2023-03-28T04:23:11.079Z,17.08
2023-03-28T04:25:43.275Z,17.05
2023-03-28T04:28:28.130Z,17.05
2023-03-28T04:31:06.066Z,17.07
2023-03-28T04:33:57.802Z,17.09
2023-03-28T04:36:27.283Z,17.09
2023-03-28T04:39:03.040Z,17.10
2023-03-28T04:42:04.647Z,17.10
2023-03-28T04:44:56.229Z,17.08
2023-03-28T04:47:25.694Z,17.03
2023-03-28T04:49:54.449Z,17.01
2023-03-28T04:52:25.103Z,16.98
2023-03-28T04:54:53.648Z,16.92
2023-03-28T04:57:26.528Z,16.92
2023-03-28T05:00:00.648Z,16.87
2023-03-28T05:03:00.217Z,16.78
2023-03-28T05:05:31.894Z,16.71
2023-03-28T05:08:01.005Z,16.62
2023-03-28T05:10:29.655Z,16.60
2023-03-28T05:13:04.040Z,16.58
2023-03-28T05:15:38.719Z,16.57
2023-03-28T05:18:23.513Z,16.58
2023-03-28T05:20:54.564Z,16.58
2023-03-28T05:23:24.237Z,16.58
2023-03-28T05:25:59.078Z,16.53
2023-03-28T05:28:30.576Z,16.52
2023-03-28T05:30:59.588Z,16.55
2023-03-28T05:33:32.518Z,16.61
2023-03-28T05:36:02.183Z,16.60
2023-03-28T05:38:37.569Z,16.56
2023-03-28T05:41:12.909Z,16.43
2023-03-28T05:43:41.216Z,16.38
2023-03-28T05:46:09.941Z,16.40
2023-03-28T05:48:43.172Z,16.43
2023-03-28T05:51:21.646Z,16.44
2023-03-28T05:53:50.438Z,16.45
2023-03-28T05:56:19.743Z,16.46
2023-03-28T05:58:48.939Z,16.44
2023-03-28T06:01:23.639Z,16.41
2023-03-28T06:03:56.310Z,16.41
2023-03-28T06:06:25.928Z,16.42
2023-03-28T06:08:54.846Z,16.40
2023-03-28T06:11:23.237Z,16.44
2023-03-28T06:14:24.225Z,16.50
2023-03-28T06:16:53.166Z,16.50
2023-03-28T06:19:22.474Z,16.52
2023-03-28T06:21:53.147Z,16.54
2023-03-28T06:24:22.274Z,16.53
2023-03-28T06:26:51.733Z,16.53
2023-03-28T06:29:25.715Z,16.51
2023-03-28T06:32:01.427Z,16.53
2023-03-28T06:34:29.965Z,16.53
2023-03-28T06:37:02.034Z,16.58
2023-03-28T06:39:43.320Z,16.66
2023-03-28T06:42:12.005Z,16.65
2023-03-28T06:44:48.974Z,16.67
2023-03-28T06:47:30.756Z,16.71
2023-03-28T06:49:59.249Z,16.73
2023-03-28T06:52:56.575Z,16.76
2023-03-28T06:55:25.696Z,16.79
2023-03-28T06:57:57.338Z,16.82
2023-03-28T07:00:31.010Z,16.88
2023-03-28T07:03:18.546Z,16.92
2023-03-28T07:05:48.987Z,16.96
2023-03-28T07:08:18.339Z,17.00
2023-03-28T07:10:46.759Z,17.03
2023-03-28T07:13:15.661Z,17.09
2023-03-28T07:16:05.406Z,17.14
2023-03-28T07:18:34.211Z,17.14
2023-03-28T07:21:14.170Z,17.17
2023-03-28T07:23:44.864Z,17.22
2023-03-28T07:26:15.661Z,17.25
2023-03-28T07:28:45.875Z,17.28
2023-03-28T07:31:14.333Z,17.32
2023-03-28T07:33:44.720Z,17.36
2023-03-28T07:36:15.870Z,17.42
2023-03-28T07:38:49.598Z,17.46
2023-03-28T07:41:19.086Z,17.48
2023-03-28T07:43:47.316Z,17.49
2023-03-28T07:46:16.387Z,17.54
2023-03-28T07:48:46.734Z,17.58
2023-03-28T07:51:16.097Z,17.62
2023-03-28T07:53:46.325Z,17.66
2023-03-28T07:57:30.796Z,16.83
2023-03-28T08:00:04.945Z,17.84
2023-03-28T08:02:44.611Z,17.90
2023-03-28T08:05:14.304Z,17.92
2023-03-28T08:07:46.199Z,17.95
2023-03-28T08:10:14.837Z,17.95
2023-03-28T08:12:48.013Z,17.97
2023-03-28T08:15:19.822Z,18.02
2023-03-28T08:17:49.233Z,18.02
2023-03-28T08:20:21.528Z,18.02
2023-03-28T08:23:17.785Z,18.00
2023-03-28T08:26:04.802Z,18.00
2023-03-28T08:28:34.133Z,18.00
2023-03-28T08:31:09.416Z,17.99
2023-03-28T08:33:38.166Z,17.99
2023-03-28T08:36:07.664Z,17.78
2023-03-28T08:38:36.785Z,17.59
2023-03-28T08:41:25.582Z,17.57
2023-03-28T08:44:20.876Z,17.54
2023-03-28T08:46:52.634Z,17.34
2023-03-28T08:49:21.193Z,17.34
2023-03-28T08:51:59.346Z,17.59
2023-03-28T08:54:37.328Z,17.63
2023-03-28T08:57:06.094Z,17.50
2023-03-28T09:00:09.092Z,17.45
2023-03-28T09:02:37.895Z,17.46
2023-03-28T09:05:36.141Z,17.44
2023-03-28T09:08:23.492Z,17.46
2023-03-28T09:11:14.589Z,17.53
2023-03-28T09:14:24.683Z,17.62
2023-03-28T09:17:03.172Z,17.80
2023-03-28T09:19:47.301Z,17.85
2023-03-28T09:22:41.772Z,17.87
2023-03-28T09:25:22.622Z,17.86
2023-03-28T09:28:24.399Z,17.89
2023-03-28T09:30:53.055Z,17.92
2023-03-28T09:33:27.662Z,17.88
2023-03-28T09:35:57.446Z,17.87
2023-03-28T09:38:38.346Z,17.83
2023-03-28T09:41:14.536Z,17.81
2023-03-28T09:44:09.234Z,17.77
2023-03-28T09:47:12.452Z,17.76
2023-03-28T09:49:47.199Z,17.76
2023-03-28T09:52:17.942Z,17.76
2023-03-28T09:54:47.498Z,17.74
2023-03-28T09:57:15.923Z,17.66
2023-03-28T10:00:07.745Z,17.61
2023-03-28T10:02:46.768Z,17.59
2023-03-28T10:05:40.247Z,17.57
2023-03-28T10:08:33.046Z,17.58
2023-03-28T10:11:14.411Z,17.57
2023-03-28T10:13:47.510Z,17.53
2023-03-28T10:16:21.206Z,17.50
2023-03-28T10:19:11.131Z,17.41
2023-03-28T10:21:51.391Z,17.35
2023-03-28T10:24:22.978Z,17.31
2023-03-28T10:27:06.204Z,17.31
2023-03-28T10:29:37.303Z,17.26
2023-03-28T10:32:06.330Z,17.23
2023-03-28T10:34:46.030Z,17.25
2023-03-28T10:37:28.720Z,17.24
2023-03-28T10:40:20.600Z,17.24
2023-03-28T10:42:52.303Z,17.18
2023-03-28T10:45:46.785Z,17.19
2023-03-28T10:48:21.907Z,17.19
2023-03-28T10:50:51.720Z,17.16
2023-03-28T10:53:38.764Z,17.17
2023-03-28T10:56:27.994Z,17.18
2023-03-28T10:59:14.826Z,17.24
2023-03-28T11:02:02.507Z,17.25
2023-03-28T11:05:14.459Z,17.22
2023-03-28T11:08:22.024Z,17.21
2023-03-28T11:11:26.208Z,17.20
2023-03-28T11:14:21.395Z,17.18
2023-03-28T11:16:59.212Z,17.18
2023-03-28T11:19:48.796Z,17.20
2023-03-28T11:22:23.044Z,17.22
2023-03-28T11:24:56.594Z,17.25
2023-03-28T11:27:47.311Z,17.26
2023-03-28T11:30:33.808Z,17.20
2023-03-28T11:33:59.119Z,17.20
2023-03-28T11:36:36.573Z,17.24
2023-03-28T11:39:18.571Z,17.16
2023-03-28T11:41:47.228Z,17.16
2023-03-28T11:44:22.970Z,17.19
2023-03-28T11:47:24.023Z,17.17
2023-03-28T11:50:18.926Z,17.18
2023-03-28T11:53:05.762Z,17.24
2023-03-28T11:55:43.213Z,17.20
2023-03-28T11:58:23.682Z,17.19
2023-03-28T12:01:05.030Z,17.19
2023-03-28T12:04:02.739Z,17.20
2023-03-28T12:07:02.982Z,17.22
2023-03-28T12:09:35.831Z,17.22
2023-03-28T12:12:14.317Z,17.23
2023-03-28T12:14:49.481Z,17.24
2023-03-28T12:17:52.746Z,17.29
2023-03-28T12:20:31.934Z,17.28
2023-03-28T12:23:04.766Z,17.30
2023-03-28T12:26:22.206Z,17.32
2023-03-28T12:28:55.662Z,17.34
2023-03-28T12:31:36.038Z,17.35
2023-03-28T12:34:23.679Z,17.37
2023-03-28T12:37:25.679Z,17.39
2023-03-28T12:40:20.215Z,17.32
2023-03-28T12:42:49.366Z,17.34
2023-03-28T12:45:26.605Z,17.31
2023-03-28T12:48:24.860Z,17.30
2023-03-28T12:50:56.723Z,17.28
2023-03-28T12:53:27.837Z,17.23
2023-03-28T12:55:56.230Z,17.19
2023-03-28T12:58:26.807Z,16.89
2023-03-28T13:01:13.894Z,16.46
2023-03-28T13:04:28.212Z,15.83
2023-03-28T13:07:12.668Z,15.30
2023-03-28T13:09:56.315Z,15.00
2023-03-28T13:12:56.413Z,14.74
2023-03-28T13:15:27.785Z,14.43
2023-03-28T13:18:18.512Z,14.29
2023-03-28T13:20:53.759Z,14.00
2023-03-28T13:23:33.896Z,13.71
2023-03-28T13:26:04.600Z,13.46
2023-03-28T13:28:39.773Z,13.22
2023-03-28T13:31:11.482Z,12.89
2023-03-28T13:34:00.131Z,12.65
2023-03-28T13:36:29.882Z,12.45
2023-03-28T13:39:09.587Z,12.33
2023-03-28T13:41:41.503Z,12.10
2023-03-28T13:44:14.572Z,11.98
2023-03-28T13:46:44.895Z,11.84
2023-03-28T13:49:19.845Z,11.70
2023-03-28T13:51:48.319Z,11.68
2023-03-28T13:54:16.847Z,11.63
2023-03-28T13:56:47.170Z,11.64
2023-03-28T13:59:16.809Z,11.61
2023-03-28T14:01:48.479Z,11.55
2023-03-28T14:04:22.098Z,11.50
2023-03-28T14:06:51.509Z,11.43
2023-03-28T14:09:31.332Z,11.22
2023-03-28T14:12:08.793Z,11.09
2023-03-28T14:14:47.755Z,10.94
2023-03-28T14:17:18.293Z,10.74
2023-03-28T14:20:06.395Z,10.54
2023-03-28T14:23:00.410Z,10.40
2023-03-28T14:25:30.798Z,17.70
2023-03-28T14:28:07.509Z,16.82
2023-03-28T14:30:40.907Z,16.50
2023-03-28T14:33:14.653Z,16.50
2023-03-28T14:35:43.427Z,16.55
2023-03-28T14:38:14.571Z,16.20
2023-03-28T14:40:44.186Z,14.52
2023-03-28T14:43:13.933Z,14.09
2023-03-28T14:45:52.214Z,13.91
2023-03-28T14:48:28.547Z,13.86
2023-03-28T14:50:59.064Z,13.82
2023-03-28T14:53:28.538Z,13.87
2023-03-28T14:56:02.236Z,13.71
2023-03-28T14:58:38.157Z,13.56
2023-03-28T15:01:07.500Z,13.52
2023-03-28T15:03:41.707Z,13.63
2023-03-28T15:06:17.793Z,13.56
2023-03-28T15:08:46.894Z,13.39
2023-03-28T15:11:30.789Z,13.33
2023-03-28T15:14:17.033Z,13.34
2023-03-28T15:16:46.085Z,13.35
2023-03-28T15:19:23.372Z,13.18
2023-03-28T15:22:04.440Z,14.33
2023-03-28T15:24:38.143Z,13.26
2023-03-28T15:27:07.567Z,12.96
2023-03-28T15:29:37.297Z,13.22
2023-03-28T15:32:07.824Z,14.72
2023-03-28T15:34:45.066Z,14.09
2023-03-28T15:37:20.615Z,13.37
2023-03-28T15:39:51.585Z,15.12
2023-03-28T15:42:20.502Z,14.68
2023-03-28T15:44:57.713Z,14.31
2023-03-28T15:47:29.657Z,13.82
2023-03-28T15:50:03.482Z,13.22
2023-03-28T15:52:34.516Z,13.17
2023-03-28T15:55:03.254Z,12.96
2023-03-28T15:57:32.541Z,12.90
2023-03-28T16:00:01.292Z,12.57
2023-03-28T16:02:32.787Z,12.24
2023-03-28T16:05:04.186Z,11.95
2023-03-28T16:07:51.185Z,11.83
2023-03-28T16:10:21.379Z,11.82
2023-03-28T16:13:15.069Z,11.89
2023-03-28T16:16:05.429Z,11.72
2023-03-28T16:18:43.890Z,12.07
2023-03-28T16:21:15.202Z,12.44
2023-03-28T16:23:43.942Z,12.37
2023-03-28T16:26:12.357Z,12.15
2023-03-28T16:28:40.994Z,12.08
2023-03-28T16:31:14.726Z,12.09
2023-03-28T16:33:43.592Z,12.22
2023-03-28T16:36:13.239Z,12.11
2023-03-28T16:38:43.213Z,11.89
2023-03-28T16:41:11.489Z,11.68
2023-03-28T16:43:40.691Z,11.50
2023-03-28T16:46:11.107Z,11.31
2023-03-28T16:48:40.909Z,11.28
2023-03-28T16:51:09.653Z,11.34
2023-03-28T16:53:38.993Z,11.20
2023-03-28T16:56:09.296Z,11.36
2023-03-28T16:58:39.423Z,11.63
2023-03-28T17:01:15.640Z,11.47
2023-03-28T17:03:46.340Z,11.45
2023-03-28T17:06:15.018Z,11.25
2023-03-28T17:08:44.446Z,11.33
2023-03-28T17:11:13.404Z,11.19
2023-03-28T17:13:42.984Z,11.21
2023-03-28T17:16:11.495Z,11.12
2023-03-28T17:18:40.197Z,11.00
2023-03-28T17:21:13.959Z,10.84
2023-03-28T17:23:43.210Z,14.24
2023-03-28T17:26:13.051Z,13.35
2023-03-28T17:28:43.647Z,12.78
2023-03-28T17:31:15.078Z,12.91
2023-03-28T17:33:44.534Z,12.74
2023-03-28T17:36:21.842Z,12.63
2023-03-28T17:38:54.359Z,12.79
2023-03-28T17:41:23.322Z,13.26
2023-03-28T17:43:52.514Z,-71.08
2023-03-28T17:46:22.139Z,-128.00
2023-03-28T17:48:50.935Z,-128.00
2023-03-28T17:51:19.583Z,-128.00
2023-03-28T17:53:48.826Z,-128.00
2023-03-28T17:56:21.727Z,-128.00
2023-03-28T17:58:50.383Z,-128.00
2023-03-28T18:01:19.811Z,-128.00
2023-03-28T18:03:49.394Z,-128.00
2023-03-28T18:06:34.013Z,-128.00
2023-03-28T18:09:02.495Z,-128.00
2023-03-28T18:11:30.962Z,-128.00
2023-03-28T18:13:59.735Z,-128.00
2023-03-28T18:16:29.315Z,-128.00
2023-03-28T18:18:58.116Z,-128.00
2023-03-28T18:21:27.316Z,-128.00
2023-03-28T18:23:55.545Z,-128.00
2023-03-28T18:26:24.575Z,-128.00
2023-03-28T18:28:53.856Z,-128.00
2023-03-28T18:31:28.190Z,-128.00
2023-03-28T18:33:57.924Z,-128.00
2023-03-28T18:36:26.618Z,-128.00
2023-03-28T18:38:56.337Z,-128.00
2023-03-28T18:41:30.289Z,-128.00
2023-03-28T18:44:00.428Z,-128.00
2023-03-28T18:46:33.916Z,-128.00
2023-03-28T18:49:02.884Z,-128.00
2023-03-28T18:51:31.779Z,-128.00
2023-03-28T18:54:01.081Z,-128.00
2023-03-28T18:56:30.386Z,-128.00
2023-03-28T18:58:58.776Z,-128.00
2023-03-28T19:01:28.761Z,-128.00
2023-03-28T19:03:58.037Z,-128.00
2023-03-28T19:06:26.568Z,-128.00
2023-03-28T19:08:54.984Z,-128.00
2023-03-28T19:11:23.671Z,-128.00
2023-03-28T19:13:57.981Z,-128.00
2023-03-28T19:16:26.895Z,-128.00
2023-03-28T19:18:55.409Z,-128.00
2023-03-28T19:21:24.174Z,-128.00
2023-03-28T19:23:54.167Z,-128.00
2023-03-28T19:26:23.164Z,-128.00
2023-03-28T19:28:51.804Z,-128.00
2023-03-28T19:31:22.152Z,-128.00
2023-03-28T19:33:50.690Z,-128.00
2023-03-28T19:36:19.237Z,-128.00
2023-03-28T19:38:50.422Z,-128.00
2023-03-28T19:41:20.395Z,-128.00
2023-03-28T19:43:55.487Z,-128.00
2023-03-28T19:46:33.246Z,-128.00
2023-03-28T19:49:05.819Z,-128.00
2023-03-28T19:51:34.861Z,-128.00
2023-03-28T19:54:03.590Z,-128.00
2023-03-28T19:56:32.238Z,-128.00
2023-03-28T19:59:00.790Z,-128.00
2023-03-28T20:01:31.281Z,-128.00
2023-03-28T20:04:00.842Z,-128.00
2023-03-28T20:06:29.446Z,-128.00
2023-03-28T20:08:57.871Z,-128.00
2023-03-28T20:13:53.151Z,12.11
2023-03-28T20:16:23.385Z,14.06
2023-03-28T20:18:54.214Z,13.79
2023-03-28T20:21:21.371Z,13.89
2023-03-28T20:23:49.798Z,13.77
2023-03-28T20:26:18.329Z,13.85
2023-03-28T20:28:49.017Z,13.77
2023-03-28T20:31:17.831Z,13.56
2023-03-28T20:33:44.755Z,13.43
2023-03-28T20:36:11.732Z,13.53
2023-03-28T20:38:39.200Z,13.49
2023-03-28T20:41:13.734Z,13.39
2023-03-28T20:43:45.994Z,13.28
2023-03-28T20:46:17.716Z,13.26
2023-03-28T20:48:45.942Z,13.44
2023-03-28T20:51:14.606Z,13.61
2023-03-28T20:53:43.299Z,13.57
2023-03-28T20:56:11.112Z,13.45
2023-03-28T20:58:39.704Z,13.57
2023-03-28T21:01:08.956Z,13.40
2023-03-28T21:03:53.153Z,13.32
2023-03-28T21:06:22.761Z,13.21
2023-03-28T21:08:50.402Z,13.23
2023-03-28T21:11:24.209Z,13.25
2023-03-28T21:13:51.798Z,13.25
2023-03-28T21:16:18.930Z,13.56
2023-03-28T21:18:47.507Z,13.53
2023-03-28T21:21:16.847Z,13.75
2023-03-28T21:23:44.294Z,13.29
2023-03-28T21:26:13.401Z,13.35
2023-03-28T21:28:45.136Z,13.38
2023-03-28T21:31:17.700Z,13.41
2023-03-28T21:33:46.167Z,13.47
2023-03-28T21:36:15.379Z,13.54
2023-03-28T21:38:42.876Z,13.67
2023-03-28T21:41:14.875Z,13.47
2023-03-28T21:43:42.072Z,13.52
2023-03-28T21:46:09.064Z,13.56
2023-03-28T21:48:37.617Z,13.63
2023-03-28T21:51:05.292Z,13.57
2023-03-28T21:53:36.721Z,13.46
2023-03-28T21:56:06.079Z,13.33
2023-03-28T21:58:32.969Z,13.43
2023-03-28T22:01:02.092Z,13.48
2023-03-28T22:03:29.969Z,13.56
2023-03-28T22:05:56.843Z,13.57
2023-03-28T22:08:24.380Z,13.50
2023-03-28T22:10:52.905Z,13.45
2023-03-28T22:13:20.664Z,13.56
2023-03-28T22:15:49.038Z,13.77
2023-03-28T22:18:16.031Z,13.83
2023-03-28T22:20:43.182Z,13.82
2023-03-28T22:23:10.256Z,13.77
2023-03-28T22:25:37.807Z,13.77
2023-03-28T22:28:07.049Z,13.72
2023-03-28T22:30:34.403Z,13.81
2023-03-28T22:33:03.271Z,13.63
2023-03-28T22:35:30.662Z,13.64
2023-03-28T22:37:57.676Z,13.62
2023-03-28T22:40:24.879Z,13.59
2023-03-28T22:42:53.541Z,13.44
2023-03-28T22:45:26.259Z,13.40
2023-03-28T22:47:53.647Z,13.26
2023-03-28T22:50:21.504Z,13.38
2023-03-28T22:52:49.756Z,13.31
2023-03-28T22:55:16.806Z,13.67
2023-03-28T22:57:47.289Z,13.48
2023-03-28T23:00:16.000Z,13.28
2023-03-28T23:02:43.227Z,13.16
2023-03-28T23:05:10.622Z,13.05
2023-03-28T23:07:37.948Z,13.32
2023-03-28T23:10:07.784Z,13.39
2023-03-28T23:12:41.268Z,13.46
2023-03-28T23:15:08.869Z,13.25
2023-03-28T23:17:35.685Z,13.40
2023-03-28T23:20:09.507Z,13.41
2023-03-28T23:22:36.676Z,13.52
2023-03-28T23:25:04.469Z,13.26
2023-03-28T23:27:31.521Z,13.30
2023-03-28T23:29:58.336Z,13.29
2023-03-28T23:32:25.467Z,13.27
2023-03-28T23:34:53.102Z,13.27
2023-03-28T23:37:25.528Z,13.17
2023-03-28T23:39:55.872Z,13.26
2023-03-28T23:42:23.288Z,13.27
2023-03-28T23:44:50.284Z,13.21
2023-03-28T23:47:17.578Z,13.17
2023-03-28T23:49:44.741Z,13.13
2023-03-28T23:52:12.514Z,13.12
2023-03-28T23:54:39.534Z,13.09
2023-03-28T23:57:07.209Z,13.05
2023-03-28T23:59:34.788Z,13.15
